sensor_id;sensor_type;location;lat;lon;timestamp;P1;durP1;ratioP1;P2;durP2;ratioP2
7501;SDS011;3792;47.740;7.606;2023-02-28T00:00:08;3.67;;;3.37;;
7501;SDS011;3792;47.740;7.606;2023-02-28T00:02:38;7.90;;;3.73;;
7501;SDS011;3792;47.740;7.606;2023-02-28T00:05:06;4.20;;;3.30;;
7501;SDS011;3792;47.740;7.606;2023-02-28T00:07:34;3.47;;;3.03;;
7501;SDS011;3792;47.740;7.606;2023-02-28T00:10:02;3.77;;;3.27;;
7501;SDS011;3792;47.740;7.606;2023-02-28T00:12:31;7.10;;;3.87;;
7501;SDS011;3792;47.740;7.606;2023-02-28T00:14:58;5.30;;;3.40;;
7501;SDS011;3792;47.740;7.606;2023-02-28T00:17:25;4.17;;;3.30;;
7501;SDS011;3792;47.740;7.606;2023-02-28T00:19:54;4.00;;;3.40;;
7501;SDS011;3792;47.740;7.606;2023-02-28T00:22:22;4.20;;;3.80;;
7501;SDS011;3792;47.740;7.606;2023-02-28T00:24:49;3.77;;;3.20;;
7501;SDS011;3792;47.740;7.606;2023-02-28T00:27:16;3.60;;;3.30;;
7501;SDS011;3792;47.740;7.606;2023-02-28T00:29:43;6.00;;;3.67;;
7501;SDS011;3792;47.740;7.606;2023-02-28T00:32:10;4.43;;;3.00;;
7501;SDS011;3792;47.740;7.606;2023-02-28T00:34:37;3.07;;;2.80;;
7501;SDS011;3792;47.740;7.606;2023-02-28T00:37:05;3.27;;;2.80;;
7501;SDS011;3792;47.740;7.606;2023-02-28T00:39:34;4.33;;;2.80;;
7501;SDS011;3792;47.740;7.606;2023-02-28T00:42:02;5.07;;;2.67;;
7501;SDS011;3792;47.740;7.606;2023-02-28T00:44:29;2.67;;;2.47;;
7501;SDS011;3792;47.740;7.606;2023-02-28T00:46:56;3.93;;;3.23;;
7501;SDS011;3792;47.740;7.606;2023-02-28T00:49:24;3.40;;;3.10;;
7501;SDS011;3792;47.740;7.606;2023-02-28T00:51:52;3.30;;;2.97;;
7501;SDS011;3792;47.740;7.606;2023-02-28T00:54:20;3.87;;;3.10;;
7501;SDS011;3792;47.740;7.606;2023-02-28T00:56:49;3.70;;;3.27;;
7501;SDS011;3792;47.740;7.606;2023-02-28T00:59:16;3.60;;;3.20;;
7501;SDS011;3792;47.740;7.606;2023-02-28T01:01:44;2.50;;;2.33;;
7501;SDS011;3792;47.740;7.606;2023-02-28T01:04:12;3.17;;;2.87;;
7501;SDS011;3792;47.740;7.606;2023-02-28T01:06:40;3.17;;;2.87;;
7501;SDS011;3792;47.740;7.606;2023-02-28T01:09:07;4.73;;;3.07;;
7501;SDS011;3792;47.740;7.606;2023-02-28T01:11:36;4.27;;;3.00;;
7501;SDS011;3792;47.740;7.606;2023-02-28T01:14:04;3.33;;;3.00;;
7501;SDS011;3792;47.740;7.606;2023-02-28T01:16:31;5.30;;;2.90;;
7501;SDS011;3792;47.740;7.606;2023-02-28T01:18:58;3.30;;;3.00;;
7501;SDS011;3792;47.740;7.606;2023-02-28T01:21:25;3.67;;;2.90;;
7501;SDS011;3792;47.740;7.606;2023-02-28T01:23:52;5.93;;;3.03;;
7501;SDS011;3792;47.740;7.606;2023-02-28T01:26:23;4.60;;;3.00;;
7501;SDS011;3792;47.740;7.606;2023-02-28T01:28:52;4.10;;;2.90;;
7501;SDS011;3792;47.740;7.606;2023-02-28T01:31:20;3.37;;;3.10;;
7501;SDS011;3792;47.740;7.606;2023-02-28T01:33:48;5.03;;;3.50;;
7501;SDS011;3792;47.740;7.606;2023-02-28T01:36:16;3.80;;;2.97;;
7501;SDS011;3792;47.740;7.606;2023-02-28T01:38:45;4.67;;;3.40;;
7501;SDS011;3792;47.740;7.606;2023-02-28T01:41:15;4.47;;;3.00;;
7501;SDS011;3792;47.740;7.606;2023-02-28T01:43:55;3.30;;;3.03;;
7501;SDS011;3792;47.740;7.606;2023-02-28T01:46:24;3.43;;;2.77;;
7501;SDS011;3792;47.740;7.606;2023-02-28T01:48:53;4.47;;;3.10;;
7501;SDS011;3792;47.740;7.606;2023-02-28T01:51:26;4.17;;;3.07;;
7501;SDS011;3792;47.740;7.606;2023-02-28T01:54:00;5.53;;;3.10;;
7501;SDS011;3792;47.740;7.606;2023-02-28T01:56:30;2.87;;;2.67;;
7501;SDS011;3792;47.740;7.606;2023-02-28T01:59:03;3.40;;;2.70;;
7501;SDS011;3792;47.740;7.606;2023-02-28T02:01:30;5.07;;;3.17;;
7501;SDS011;3792;47.740;7.606;2023-02-28T02:03:59;4.87;;;3.10;;
7501;SDS011;3792;47.740;7.606;2023-02-28T02:06:29;5.00;;;2.57;;
7501;SDS011;3792;47.740;7.606;2023-02-28T02:08:59;3.40;;;2.97;;
7501;SDS011;3792;47.740;7.606;2023-02-28T02:11:27;3.50;;;2.90;;
7501;SDS011;3792;47.740;7.606;2023-02-28T02:14:04;3.73;;;3.10;;
7501;SDS011;3792;47.740;7.606;2023-02-28T02:16:57;3.20;;;2.90;;
7501;SDS011;3792;47.740;7.606;2023-02-28T02:19:46;3.20;;;2.90;;
7501;SDS011;3792;47.740;7.606;2023-02-28T02:22:45;4.23;;;2.90;;
7501;SDS011;3792;47.740;7.606;2023-02-28T02:25:34;4.93;;;3.70;;
7501;SDS011;3792;47.740;7.606;2023-02-28T02:28:30;3.13;;;2.83;;
7501;SDS011;3792;47.740;7.606;2023-02-28T02:34:31;3.43;;;3.03;;
7501;SDS011;3792;47.740;7.606;2023-02-28T02:37:15;4.13;;;3.00;;
7501;SDS011;3792;47.740;7.606;2023-02-28T02:39:50;4.27;;;3.27;;
7501;SDS011;3792;47.740;7.606;2023-02-28T02:42:23;3.47;;;2.80;;
7501;SDS011;3792;47.740;7.606;2023-02-28T02:44:57;3.07;;;2.77;;
7501;SDS011;3792;47.740;7.606;2023-02-28T02:47:29;3.47;;;3.13;;
7501;SDS011;3792;47.740;7.606;2023-02-28T02:50:01;3.37;;;3.10;;
7501;SDS011;3792;47.740;7.606;2023-02-28T02:52:32;3.27;;;2.97;;
7501;SDS011;3792;47.740;7.606;2023-02-28T02:55:06;3.47;;;3.17;;
7501;SDS011;3792;47.740;7.606;2023-02-28T02:57:36;4.87;;;3.17;;
7501;SDS011;3792;47.740;7.606;2023-02-28T03:00:10;3.67;;;3.30;;
7501;SDS011;3792;47.740;7.606;2023-02-28T03:02:38;3.93;;;3.53;;
7501;SDS011;3792;47.740;7.606;2023-02-28T03:05:12;4.63;;;3.43;;
7501;SDS011;3792;47.740;7.606;2023-02-28T03:07:42;3.30;;;3.00;;
7501;SDS011;3792;47.740;7.606;2023-02-28T03:10:30;6.00;;;3.60;;
7501;SDS011;3792;47.740;7.606;2023-02-28T03:13:17;4.73;;;3.97;;
7501;SDS011;3792;47.740;7.606;2023-02-28T03:16:09;3.63;;;3.33;;
7501;SDS011;3792;47.740;7.606;2023-02-28T03:18:50;4.23;;;3.43;;
7501;SDS011;3792;47.740;7.606;2023-02-28T03:21:28;4.37;;;3.80;;
7501;SDS011;3792;47.740;7.606;2023-02-28T03:24:03;4.13;;;3.73;;
7501;SDS011;3792;47.740;7.606;2023-02-28T03:26:34;4.77;;;4.13;;
7501;SDS011;3792;47.740;7.606;2023-02-28T03:29:07;4.20;;;3.50;;
7501;SDS011;3792;47.740;7.606;2023-02-28T03:31:43;5.17;;;3.80;;
7501;SDS011;3792;47.740;7.606;2023-02-28T03:34:14;4.07;;;3.57;;
7501;SDS011;3792;47.740;7.606;2023-02-28T03:36:48;3.77;;;3.47;;
7501;SDS011;3792;47.740;7.606;2023-02-28T03:39:19;3.67;;;3.37;;
7501;SDS011;3792;47.740;7.606;2023-02-28T03:41:51;4.33;;;3.47;;
7501;SDS011;3792;47.740;7.606;2023-02-28T03:44:21;5.33;;;4.20;;
7501;SDS011;3792;47.740;7.606;2023-02-28T03:46:52;4.17;;;3.77;;
7501;SDS011;3792;47.740;7.606;2023-02-28T03:49:24;4.97;;;3.80;;
7501;SDS011;3792;47.740;7.606;2023-02-28T03:51:57;3.83;;;3.33;;
7501;SDS011;3792;47.740;7.606;2023-02-28T03:54:30;3.83;;;3.47;;
7501;SDS011;3792;47.740;7.606;2023-02-28T03:56:59;4.63;;;3.83;;
7501;SDS011;3792;47.740;7.606;2023-02-28T03:59:32;3.77;;;3.40;;
7501;SDS011;3792;47.740;7.606;2023-02-28T04:02:03;4.20;;;3.80;;
7501;SDS011;3792;47.740;7.606;2023-02-28T04:04:30;4.67;;;4.07;;
7501;SDS011;3792;47.740;7.606;2023-02-28T04:07:02;5.50;;;3.80;;
7501;SDS011;3792;47.740;7.606;2023-02-28T04:09:30;4.07;;;3.67;;
7501;SDS011;3792;47.740;7.606;2023-02-28T04:11:58;4.60;;;3.80;;
7501;SDS011;3792;47.740;7.606;2023-02-28T04:14:25;4.43;;;3.73;;
7501;SDS011;3792;47.740;7.606;2023-02-28T04:16:52;5.27;;;3.93;;
7501;SDS011;3792;47.740;7.606;2023-02-28T04:19:19;4.60;;;4.20;;
7501;SDS011;3792;47.740;7.606;2023-02-28T04:21:47;4.20;;;3.80;;
7501;SDS011;3792;47.740;7.606;2023-02-28T04:24:18;4.77;;;4.03;;
7501;SDS011;3792;47.740;7.606;2023-02-28T04:26:46;4.63;;;4.23;;
7501;SDS011;3792;47.740;7.606;2023-02-28T04:29:18;5.47;;;4.07;;
7501;SDS011;3792;47.740;7.606;2023-02-28T04:31:47;4.30;;;3.90;;
7501;SDS011;3792;47.740;7.606;2023-02-28T04:34:15;5.07;;;4.00;;
7501;SDS011;3792;47.740;7.606;2023-02-28T04:36:44;4.70;;;4.30;;
7501;SDS011;3792;47.740;7.606;2023-02-28T04:39:14;6.13;;;4.70;;
7501;SDS011;3792;47.740;7.606;2023-02-28T04:41:43;6.03;;;4.93;;
7501;SDS011;3792;47.740;7.606;2023-02-28T04:44:10;5.20;;;4.70;;
7501;SDS011;3792;47.740;7.606;2023-02-28T04:46:37;4.70;;;4.20;;
7501;SDS011;3792;47.740;7.606;2023-02-28T04:49:04;5.33;;;4.23;;
7501;SDS011;3792;47.740;7.606;2023-02-28T04:51:31;4.90;;;4.40;;
7501;SDS011;3792;47.740;7.606;2023-02-28T04:53:58;4.80;;;4.30;;
7501;SDS011;3792;47.740;7.606;2023-02-28T04:56:25;5.27;;;4.57;;
7501;SDS011;3792;47.740;7.606;2023-02-28T04:58:54;5.10;;;4.17;;
7501;SDS011;3792;47.740;7.606;2023-02-28T05:01:22;4.97;;;4.47;;
7501;SDS011;3792;47.740;7.606;2023-02-28T05:03:51;4.60;;;4.20;;
7501;SDS011;3792;47.740;7.606;2023-02-28T05:06:19;4.80;;;4.30;;
7501;SDS011;3792;47.740;7.606;2023-02-28T05:08:47;5.33;;;4.83;;
7501;SDS011;3792;47.740;7.606;2023-02-28T05:11:15;4.93;;;4.43;;
7501;SDS011;3792;47.740;7.606;2023-02-28T05:13:44;4.20;;;3.80;;
7501;SDS011;3792;47.740;7.606;2023-02-28T05:16:12;5.77;;;4.60;;
7501;SDS011;3792;47.740;7.606;2023-02-28T05:18:39;7.33;;;4.47;;
7501;SDS011;3792;47.740;7.606;2023-02-28T05:21:14;4.83;;;4.20;;
7501;SDS011;3792;47.740;7.606;2023-02-28T05:23:52;5.40;;;4.70;;
7501;SDS011;3792;47.740;7.606;2023-02-28T05:26:20;6.30;;;4.40;;
7501;SDS011;3792;47.740;7.606;2023-02-28T05:28:47;4.97;;;4.10;;
7501;SDS011;3792;47.740;7.606;2023-02-28T05:31:15;4.40;;;4.00;;
7501;SDS011;3792;47.740;7.606;2023-02-28T05:33:42;5.63;;;4.80;;
7501;SDS011;3792;47.740;7.606;2023-02-28T05:36:10;4.50;;;4.10;;
7501;SDS011;3792;47.740;7.606;2023-02-28T05:38:37;4.80;;;4.40;;
7501;SDS011;3792;47.740;7.606;2023-02-28T05:41:05;6.43;;;4.47;;
7501;SDS011;3792;47.740;7.606;2023-02-28T05:43:33;4.53;;;4.07;;
7501;SDS011;3792;47.740;7.606;2023-02-28T05:46:02;4.80;;;4.27;;
7501;SDS011;3792;47.740;7.606;2023-02-28T05:48:32;4.67;;;4.20;;
7501;SDS011;3792;47.740;7.606;2023-02-28T05:50:59;5.60;;;3.90;;
7501;SDS011;3792;47.740;7.606;2023-02-28T05:53:27;5.10;;;4.63;;
7501;SDS011;3792;47.740;7.606;2023-02-28T05:55:55;5.67;;;4.40;;
7501;SDS011;3792;47.740;7.606;2023-02-28T05:58:22;6.87;;;4.93;;
7501;SDS011;3792;47.740;7.606;2023-02-28T06:00:50;7.20;;;5.10;;
7501;SDS011;3792;47.740;7.606;2023-02-28T06:03:17;6.63;;;4.93;;
7501;SDS011;3792;47.740;7.606;2023-02-28T06:05:46;5.90;;;4.43;;
7501;SDS011;3792;47.740;7.606;2023-02-28T06:08:13;5.57;;;4.80;;
7501;SDS011;3792;47.740;7.606;2023-02-28T06:10:40;5.73;;;5.17;;
7501;SDS011;3792;47.740;7.606;2023-02-28T06:13:07;10.57;;;6.00;;
7501;SDS011;3792;47.740;7.606;2023-02-28T06:15:34;5.67;;;5.10;;
7501;SDS011;3792;47.740;7.606;2023-02-28T06:18:01;10.27;;;8.17;;
7501;SDS011;3792;47.740;7.606;2023-02-28T06:20:28;7.27;;;6.40;;
7501;SDS011;3792;47.740;7.606;2023-02-28T06:22:57;13.13;;;11.27;;
7501;SDS011;3792;47.740;7.606;2023-02-28T06:25:24;11.70;;;9.60;;
7501;SDS011;3792;47.740;7.606;2023-02-28T06:27:51;7.80;;;6.47;;
7501;SDS011;3792;47.740;7.606;2023-02-28T06:30:18;6.10;;;5.50;;
7501;SDS011;3792;47.740;7.606;2023-02-28T06:32:48;7.80;;;5.47;;
7501;SDS011;3792;47.740;7.606;2023-02-28T06:35:15;8.73;;;6.50;;
7501;SDS011;3792;47.740;7.606;2023-02-28T06:37:43;7.13;;;6.00;;
7501;SDS011;3792;47.740;7.606;2023-02-28T06:40:12;6.77;;;6.07;;
7501;SDS011;3792;47.740;7.606;2023-02-28T06:42:39;6.10;;;5.40;;
7501;SDS011;3792;47.740;7.606;2023-02-28T06:45:07;6.10;;;5.23;;
7501;SDS011;3792;47.740;7.606;2023-02-28T06:47:35;5.70;;;5.13;;
7501;SDS011;3792;47.740;7.606;2023-02-28T06:50:02;5.83;;;5.23;;
7501;SDS011;3792;47.740;7.606;2023-02-28T06:52:30;6.60;;;5.90;;
7501;SDS011;3792;47.740;7.606;2023-02-28T06:54:58;7.47;;;5.73;;
7501;SDS011;3792;47.740;7.606;2023-02-28T06:57:28;7.40;;;5.23;;
7501;SDS011;3792;47.740;7.606;2023-02-28T06:59:57;6.77;;;5.43;;
7501;SDS011;3792;47.740;7.606;2023-02-28T07:02:25;6.40;;;5.80;;
7501;SDS011;3792;47.740;7.606;2023-02-28T07:04:52;5.90;;;5.30;;
7501;SDS011;3792;47.740;7.606;2023-02-28T07:07:19;5.23;;;4.83;;
7501;SDS011;3792;47.740;7.606;2023-02-28T07:09:46;6.80;;;5.57;;
7501;SDS011;3792;47.740;7.606;2023-02-28T07:12:13;6.57;;;5.20;;
7501;SDS011;3792;47.740;7.606;2023-02-28T07:14:41;6.10;;;5.50;;
7501;SDS011;3792;47.740;7.606;2023-02-28T07:17:09;6.27;;;5.50;;
7501;SDS011;3792;47.740;7.606;2023-02-28T07:19:37;5.73;;;5.13;;
7501;SDS011;3792;47.740;7.606;2023-02-28T07:22:04;5.43;;;4.93;;
7501;SDS011;3792;47.740;7.606;2023-02-28T07:24:31;6.53;;;5.80;;
7501;SDS011;3792;47.740;7.606;2023-02-28T07:26:58;7.20;;;5.87;;
7501;SDS011;3792;47.740;7.606;2023-02-28T07:29:26;6.17;;;5.30;;
7501;SDS011;3792;47.740;7.606;2023-02-28T07:31:55;7.73;;;5.80;;
7501;SDS011;3792;47.740;7.606;2023-02-28T07:34:23;6.03;;;5.43;;
7501;SDS011;3792;47.740;7.606;2023-02-28T07:36:52;6.23;;;5.50;;
7501;SDS011;3792;47.740;7.606;2023-02-28T07:39:19;8.80;;;7.20;;
7501;SDS011;3792;47.740;7.606;2023-02-28T07:41:47;7.10;;;6.37;;
7501;SDS011;3792;47.740;7.606;2023-02-28T07:44:14;7.60;;;6.20;;
7501;SDS011;3792;47.740;7.606;2023-02-28T07:46:41;8.53;;;5.70;;
7501;SDS011;3792;47.740;7.606;2023-02-28T07:49:09;9.67;;;7.53;;
7501;SDS011;3792;47.740;7.606;2023-02-28T07:51:36;7.23;;;6.37;;
7501;SDS011;3792;47.740;7.606;2023-02-28T07:54:03;7.20;;;6.30;;
7501;SDS011;3792;47.740;7.606;2023-02-28T07:56:31;8.80;;;6.47;;
7501;SDS011;3792;47.740;7.606;2023-02-28T07:58:58;9.00;;;6.60;;
7501;SDS011;3792;47.740;7.606;2023-02-28T08:01:26;9.27;;;6.60;;
7501;SDS011;3792;47.740;7.606;2023-02-28T08:03:53;13.83;;;9.77;;
7501;SDS011;3792;47.740;7.606;2023-02-28T08:06:24;9.80;;;7.53;;
7501;SDS011;3792;47.740;7.606;2023-02-28T08:08:52;7.03;;;6.27;;
7501;SDS011;3792;47.740;7.606;2023-02-28T08:11:21;7.30;;;6.60;;
7501;SDS011;3792;47.740;7.606;2023-02-28T08:13:48;8.07;;;7.23;;
7501;SDS011;3792;47.740;7.606;2023-02-28T08:16:15;7.20;;;6.50;;
7501;SDS011;3792;47.740;7.606;2023-02-28T08:18:47;6.87;;;5.97;;
7501;SDS011;3792;47.740;7.606;2023-02-28T08:21:14;10.90;;;8.43;;
7501;SDS011;3792;47.740;7.606;2023-02-28T08:23:42;10.90;;;9.63;;
7501;SDS011;3792;47.740;7.606;2023-02-28T08:26:10;9.20;;;7.57;;
7501;SDS011;3792;47.740;7.606;2023-02-28T08:28:37;8.30;;;6.80;;
7501;SDS011;3792;47.740;7.606;2023-02-28T08:31:07;8.37;;;7.30;;
7501;SDS011;3792;47.740;7.606;2023-02-28T08:33:35;9.57;;;8.23;;
7501;SDS011;3792;47.740;7.606;2023-02-28T08:36:04;14.43;;;10.80;;
7501;SDS011;3792;47.740;7.606;2023-02-28T08:38:32;17.93;;;11.30;;
7501;SDS011;3792;47.740;7.606;2023-02-28T08:41:01;13.20;;;9.60;;
7501;SDS011;3792;47.740;7.606;2023-02-28T08:43:31;12.17;;;9.63;;
7501;SDS011;3792;47.740;7.606;2023-02-28T08:45:58;16.77;;;7.23;;
7501;SDS011;3792;47.740;7.606;2023-02-28T08:48:25;7.53;;;6.80;;
7501;SDS011;3792;47.740;7.606;2023-02-28T08:50:56;8.57;;;6.70;;
7501;SDS011;3792;47.740;7.606;2023-02-28T08:53:23;8.23;;;6.53;;
7501;SDS011;3792;47.740;7.606;2023-02-28T08:55:57;7.07;;;6.37;;
7501;SDS011;3792;47.740;7.606;2023-02-28T08:58:26;9.60;;;6.90;;
7501;SDS011;3792;47.740;7.606;2023-02-28T09:00:53;9.40;;;7.43;;
7501;SDS011;3792;47.740;7.606;2023-02-28T09:03:20;8.00;;;7.27;;
7501;SDS011;3792;47.740;7.606;2023-02-28T09:05:51;7.77;;;6.97;;
7501;SDS011;3792;47.740;7.606;2023-02-28T09:08:20;6.80;;;6.17;;
7501;SDS011;3792;47.740;7.606;2023-02-28T09:10:47;7.07;;;6.37;;
7501;SDS011;3792;47.740;7.606;2023-02-28T09:13:14;8.33;;;5.97;;
7501;SDS011;3792;47.740;7.606;2023-02-28T09:15:42;8.97;;;6.50;;
7501;SDS011;3792;47.740;7.606;2023-02-28T09:18:09;8.07;;;7.23;;
7501;SDS011;3792;47.740;7.606;2023-02-28T09:20:37;7.97;;;5.93;;
7501;SDS011;3792;47.740;7.606;2023-02-28T09:23:05;8.10;;;5.87;;
7501;SDS011;3792;47.740;7.606;2023-02-28T09:25:33;7.17;;;6.20;;
7501;SDS011;3792;47.740;7.606;2023-02-28T09:28:01;7.37;;;6.67;;
7501;SDS011;3792;47.740;7.606;2023-02-28T09:30:29;7.90;;;6.97;;
7501;SDS011;3792;47.740;7.606;2023-02-28T09:32:58;8.70;;;6.17;;
7501;SDS011;3792;47.740;7.606;2023-02-28T09:35:25;7.03;;;6.33;;
7501;SDS011;3792;47.740;7.606;2023-02-28T09:37:52;8.60;;;7.13;;
7501;SDS011;3792;47.740;7.606;2023-02-28T09:40:20;7.67;;;6.50;;
7501;SDS011;3792;47.740;7.606;2023-02-28T09:42:51;8.63;;;7.07;;
7501;SDS011;3792;47.740;7.606;2023-02-28T09:45:22;7.63;;;6.37;;
7501;SDS011;3792;47.740;7.606;2023-02-28T09:47:54;7.50;;;6.17;;
7501;SDS011;3792;47.740;7.606;2023-02-28T09:50:30;7.33;;;6.40;;
7501;SDS011;3792;47.740;7.606;2023-02-28T09:53:02;7.93;;;6.03;;
7501;SDS011;3792;47.740;7.606;2023-02-28T09:55:39;6.87;;;5.93;;
7501;SDS011;3792;47.740;7.606;2023-02-28T09:58:11;10.67;;;8.30;;
7501;SDS011;3792;47.740;7.606;2023-02-28T10:00:44;13.20;;;8.97;;
7501;SDS011;3792;47.740;7.606;2023-02-28T10:03:30;8.40;;;7.10;;
7501;SDS011;3792;47.740;7.606;2023-02-28T10:06:05;11.27;;;9.13;;
7501;SDS011;3792;47.740;7.606;2023-02-28T10:08:37;7.80;;;6.97;;
7501;SDS011;3792;47.740;7.606;2023-02-28T10:11:11;8.50;;;6.70;;
7501;SDS011;3792;47.740;7.606;2023-02-28T10:13:49;7.43;;;6.43;;
7501;SDS011;3792;47.740;7.606;2023-02-28T10:16:22;7.13;;;5.90;;
7501;SDS011;3792;47.740;7.606;2023-02-28T10:18:54;9.13;;;7.27;;
7501;SDS011;3792;47.740;7.606;2023-02-28T10:21:27;8.70;;;7.07;;
7501;SDS011;3792;47.740;7.606;2023-02-28T10:24:03;11.47;;;8.87;;
7501;SDS011;3792;47.740;7.606;2023-02-28T10:26:35;10.47;;;7.90;;
7501;SDS011;3792;47.740;7.606;2023-02-28T10:29:03;9.33;;;7.40;;
7501;SDS011;3792;47.740;7.606;2023-02-28T10:31:30;9.40;;;7.60;;
7501;SDS011;3792;47.740;7.606;2023-02-28T10:33:57;11.97;;;8.60;;
7501;SDS011;3792;47.740;7.606;2023-02-28T10:36:24;8.77;;;7.23;;
7501;SDS011;3792;47.740;7.606;2023-02-28T10:38:52;9.63;;;8.20;;
7501;SDS011;3792;47.740;7.606;2023-02-28T10:41:26;8.73;;;7.80;;
7501;SDS011;3792;47.740;7.606;2023-02-28T10:44:12;7.63;;;6.83;;
7501;SDS011;3792;47.740;7.606;2023-02-28T10:46:41;7.80;;;6.87;;
7501;SDS011;3792;47.740;7.606;2023-02-28T10:49:12;6.43;;;5.83;;
7501;SDS011;3792;47.740;7.606;2023-02-28T10:51:43;8.83;;;6.43;;
7501;SDS011;3792;47.740;7.606;2023-02-28T10:54:19;7.80;;;7.03;;
7501;SDS011;3792;47.740;7.606;2023-02-28T10:57:05;8.00;;;6.90;;
7501;SDS011;3792;47.740;7.606;2023-02-28T10:59:34;7.17;;;6.47;;
7501;SDS011;3792;47.740;7.606;2023-02-28T11:02:01;9.67;;;7.33;;
7501;SDS011;3792;47.740;7.606;2023-02-28T11:04:33;12.97;;;9.60;;
7501;SDS011;3792;47.740;7.606;2023-02-28T11:07:04;9.93;;;7.50;;
7501;SDS011;3792;47.740;7.606;2023-02-28T11:09:34;11.77;;;7.70;;
7501;SDS011;3792;47.740;7.606;2023-02-28T11:12:04;8.13;;;6.97;;
7501;SDS011;3792;47.740;7.606;2023-02-28T11:14:35;8.47;;;7.03;;
7501;SDS011;3792;47.740;7.606;2023-02-28T11:17:14;8.47;;;6.77;;
7501;SDS011;3792;47.740;7.606;2023-02-28T11:19:47;7.57;;;6.50;;
7501;SDS011;3792;47.740;7.606;2023-02-28T11:22:17;8.03;;;7.23;;
7501;SDS011;3792;47.740;7.606;2023-02-28T11:24:48;9.30;;;6.70;;
7501;SDS011;3792;47.740;7.606;2023-02-28T11:27:25;8.90;;;6.63;;
7501;SDS011;3792;47.740;7.606;2023-02-28T11:30:22;7.57;;;6.77;;
7501;SDS011;3792;47.740;7.606;2023-02-28T11:32:58;9.07;;;6.80;;
7501;SDS011;3792;47.740;7.606;2023-02-28T11:35:26;7.40;;;6.63;;
7501;SDS011;3792;47.740;7.606;2023-02-28T11:37:56;8.97;;;6.87;;
7501;SDS011;3792;47.740;7.606;2023-02-28T11:40:28;17.47;;;12.03;;
7501;SDS011;3792;47.740;7.606;2023-02-28T11:43:10;18.73;;;12.47;;
7501;SDS011;3792;47.740;7.606;2023-02-28T11:45:49;15.17;;;10.97;;
7501;SDS011;3792;47.740;7.606;2023-02-28T11:48:27;8.70;;;7.20;;
7501;SDS011;3792;47.740;7.606;2023-02-28T11:51:01;8.63;;;6.80;;
7501;SDS011;3792;47.740;7.606;2023-02-28T11:53:39;8.50;;;7.10;;
7501;SDS011;3792;47.740;7.606;2023-02-28T11:56:19;7.27;;;5.97;;
7501;SDS011;3792;47.740;7.606;2023-02-28T11:58:52;7.17;;;6.00;;
7501;SDS011;3792;47.740;7.606;2023-02-28T12:01:31;9.33;;;5.80;;
7501;SDS011;3792;47.740;7.606;2023-02-28T12:04:12;6.97;;;6.20;;
7501;SDS011;3792;47.740;7.606;2023-02-28T12:06:50;6.73;;;5.77;;
7501;SDS011;3792;47.740;7.606;2023-02-28T12:09:29;7.50;;;6.00;;
7501;SDS011;3792;47.740;7.606;2023-02-28T12:12:06;6.57;;;5.87;;
7501;SDS011;3792;47.740;7.606;2023-02-28T12:14:49;7.83;;;6.07;;
7501;SDS011;3792;47.740;7.606;2023-02-28T12:17:34;7.80;;;6.40;;
7501;SDS011;3792;47.740;7.606;2023-02-28T12:20:15;7.20;;;6.20;;
7501;SDS011;3792;47.740;7.606;2023-02-28T12:22:49;8.00;;;6.90;;
7501;SDS011;3792;47.740;7.606;2023-02-28T12:28:23;6.70;;;6.00;;
7501;SDS011;3792;47.740;7.606;2023-02-28T12:30:56;7.13;;;6.40;;
7501;SDS011;3792;47.740;7.606;2023-02-28T12:33:27;7.60;;;6.87;;
7501;SDS011;3792;47.740;7.606;2023-02-28T12:35:59;8.37;;;7.33;;
7501;SDS011;3792;47.740;7.606;2023-02-28T12:38:34;10.37;;;7.90;;
7501;SDS011;3792;47.740;7.606;2023-02-28T12:41:07;12.63;;;9.30;;
7501;SDS011;3792;47.740;7.606;2023-02-28T12:43:41;13.77;;;9.73;;
7501;SDS011;3792;47.740;7.606;2023-02-28T12:46:12;11.53;;;8.00;;
7501;SDS011;3792;47.740;7.606;2023-02-28T12:48:44;13.17;;;7.33;;
7501;SDS011;3792;47.740;7.606;2023-02-28T12:51:14;9.10;;;7.07;;
7501;SDS011;3792;47.740;7.606;2023-02-28T12:53:47;8.30;;;7.40;;
7501;SDS011;3792;47.740;7.606;2023-02-28T12:56:21;8.60;;;6.90;;
7501;SDS011;3792;47.740;7.606;2023-02-28T12:59:01;7.37;;;6.50;;
7501;SDS011;3792;47.740;7.606;2023-02-28T13:01:39;7.10;;;6.40;;
7501;SDS011;3792;47.740;7.606;2023-02-28T13:07:13;9.17;;;6.77;;
7501;SDS011;3792;47.740;7.606;2023-02-28T13:09:58;10.43;;;7.70;;
7501;SDS011;3792;47.740;7.606;2023-02-28T13:12:28;7.77;;;6.90;;
7501;SDS011;3792;47.740;7.606;2023-02-28T13:15:04;52.00;;;24.57;;
7501;SDS011;3792;47.740;7.606;2023-02-28T13:17:38;12.00;;;8.30;;
7501;SDS011;3792;47.740;7.606;2023-02-28T13:20:13;9.87;;;7.80;;
7501;SDS011;3792;47.740;7.606;2023-02-28T13:22:44;8.03;;;6.83;;
7501;SDS011;3792;47.740;7.606;2023-02-28T13:31:19;17.00;;;10.10;;
7501;SDS011;3792;47.740;7.606;2023-02-28T13:36:38;9.97;;;7.23;;
7501;SDS011;3792;47.740;7.606;2023-02-28T13:39:44;7.53;;;6.60;;
7501;SDS011;3792;47.740;7.606;2023-02-28T13:42:23;8.83;;;6.83;;
7501;SDS011;3792;47.740;7.606;2023-02-28T13:45:20;8.97;;;6.83;;
7501;SDS011;3792;47.740;7.606;2023-02-28T13:47:55;8.13;;;6.90;;
7501;SDS011;3792;47.740;7.606;2023-02-28T13:50:29;8.47;;;7.23;;
7501;SDS011;3792;47.740;7.606;2023-02-28T13:53:15;8.80;;;7.63;;
7501;SDS011;3792;47.740;7.606;2023-02-28T13:56:03;8.97;;;7.67;;
7501;SDS011;3792;47.740;7.606;2023-02-28T13:58:39;10.20;;;7.30;;
7501;SDS011;3792;47.740;7.606;2023-02-28T14:04:25;9.67;;;7.10;;
7501;SDS011;3792;47.740;7.606;2023-02-28T14:07:15;8.67;;;7.57;;
7501;SDS011;3792;47.740;7.606;2023-02-28T14:09:45;7.70;;;6.90;;
7501;SDS011;3792;47.740;7.606;2023-02-28T14:15:47;11.37;;;6.83;;
7501;SDS011;3792;47.740;7.606;2023-02-28T14:18:25;9.20;;;7.67;;
7501;SDS011;3792;47.740;7.606;2023-02-28T14:20:59;8.47;;;7.07;;
7501;SDS011;3792;47.740;7.606;2023-02-28T14:23:36;8.83;;;7.87;;
7501;SDS011;3792;47.740;7.606;2023-02-28T14:26:32;11.33;;;7.90;;
7501;SDS011;3792;47.740;7.606;2023-02-28T14:29:17;8.73;;;7.83;;
7501;SDS011;3792;47.740;7.606;2023-02-28T14:32:02;10.00;;;7.63;;
7501;SDS011;3792;47.740;7.606;2023-02-28T14:34:39;8.63;;;7.50;;
7501;SDS011;3792;47.740;7.606;2023-02-28T14:37:14;11.17;;;8.70;;
7501;SDS011;3792;47.740;7.606;2023-02-28T14:39:52;8.93;;;7.77;;
7501;SDS011;3792;47.740;7.606;2023-02-28T14:42:28;10.70;;;8.33;;
7501;SDS011;3792;47.740;7.606;2023-02-28T14:44:56;10.80;;;8.03;;
7501;SDS011;3792;47.740;7.606;2023-02-28T14:47:25;9.63;;;8.43;;
7501;SDS011;3792;47.740;7.606;2023-02-28T14:49:55;13.43;;;10.00;;
7501;SDS011;3792;47.740;7.606;2023-02-28T14:52:26;11.37;;;9.00;;
7501;SDS011;3792;47.740;7.606;2023-02-28T14:54:55;13.17;;;9.97;;
7501;SDS011;3792;47.740;7.606;2023-02-28T14:57:24;17.70;;;12.50;;
7501;SDS011;3792;47.740;7.606;2023-02-28T15:00:00;12.53;;;9.17;;
7501;SDS011;3792;47.740;7.606;2023-02-28T15:02:35;12.37;;;9.13;;
7501;SDS011;3792;47.740;7.606;2023-02-28T15:05:10;11.77;;;9.73;;
7501;SDS011;3792;47.740;7.606;2023-02-28T15:08:00;9.60;;;8.43;;
7501;SDS011;3792;47.740;7.606;2023-02-28T15:10:29;10.70;;;8.67;;
7501;SDS011;3792;47.740;7.606;2023-02-28T15:12:57;13.33;;;8.80;;
7501;SDS011;3792;47.740;7.606;2023-02-28T15:15:26;11.47;;;8.50;;
7501;SDS011;3792;47.740;7.606;2023-02-28T15:18:00;12.43;;;9.20;;
7501;SDS011;3792;47.740;7.606;2023-02-28T15:20:28;10.53;;;8.60;;
7501;SDS011;3792;47.740;7.606;2023-02-28T15:22:57;12.00;;;9.07;;
7501;SDS011;3792;47.740;7.606;2023-02-28T15:25:25;10.87;;;9.33;;
7501;SDS011;3792;47.740;7.606;2023-02-28T15:27:53;10.00;;;8.57;;
7501;SDS011;3792;47.740;7.606;2023-02-28T15:30:24;10.47;;;8.83;;
7501;SDS011;3792;47.740;7.606;2023-02-28T15:33:02;12.17;;;9.17;;
7501;SDS011;3792;47.740;7.606;2023-02-28T15:35:33;11.63;;;8.73;;
7501;SDS011;3792;47.740;7.606;2023-02-28T15:38:03;11.30;;;8.30;;
7501;SDS011;3792;47.740;7.606;2023-02-28T15:40:40;12.93;;;8.67;;
7501;SDS011;3792;47.740;7.606;2023-02-28T15:43:12;10.33;;;9.10;;
7501;SDS011;3792;47.740;7.606;2023-02-28T15:45:44;13.70;;;8.90;;
7501;SDS011;3792;47.740;7.606;2023-02-28T15:48:16;9.80;;;8.33;;
7501;SDS011;3792;47.740;7.606;2023-02-28T15:50:47;11.40;;;8.87;;
7501;SDS011;3792;47.740;7.606;2023-02-28T15:53:19;10.97;;;8.70;;
7501;SDS011;3792;47.740;7.606;2023-02-28T15:55:52;9.63;;;8.47;;
7501;SDS011;3792;47.740;7.606;2023-02-28T15:58:22;10.20;;;8.93;;
7501;SDS011;3792;47.740;7.606;2023-02-28T16:03:45;14.77;;;9.10;;
7501;SDS011;3792;47.740;7.606;2023-02-28T16:06:30;12.57;;;9.83;;